sensor_id;sensor_type;location;lat;lon;timestamp;noise_LAeq;noise_LA_min;noise_LA_max;noise_LA01;noise_LA95
66589;Laerm;53447;49.272;11.070;2022-10-30T00:00:09;41.70;38.63;44.07;;
66589;Laerm;53447;49.272;11.070;2022-10-30T00:02:35;41.00;38.31;42.89;;
66589;Laerm;53447;49.272;11.070;2022-10-30T00:05:00;41.31;38.31;45.64;;
66589;Laerm;53447;49.272;11.070;2022-10-30T00:07:25;40.79;37.31;42.40;;
66589;Laerm;53447;49.272;11.070;2022-10-30T00:09:51;41.26;37.96;43.73;;
66589;Laerm;53447;49.272;11.070;2022-10-30T00:12:16;40.77;37.45;43.30;;
66589;Laerm;53447;49.272;11.070;2022-10-30T00:14:41;41.00;36.55;44.80;;
66589;Laerm;53447;49.272;11.070;2022-10-30T00:17:06;41.30;37.71;44.70;;
66589;Laerm;53447;49.272;11.070;2022-10-30T00:19:31;41.03;37.96;49.02;;
66589;Laerm;53447;49.272;11.070;2022-10-30T00:21:57;42.82;38.31;48.70;;
66589;Laerm;53447;49.272;11.070;2022-10-30T00:24:22;42.21;39.56;46.68;;
66589;Laerm;53447;49.272;11.070;2022-10-30T00:26:48;47.98;39.56;60.68;;
66589;Laerm;53447;49.272;11.070;2022-10-30T00:29:13;41.73;37.71;49.68;;
66589;Laerm;53447;49.272;11.070;2022-10-30T00:31:39;41.29;38.20;43.40;;
66589;Laerm;53447;49.272;11.070;2022-10-30T00:34:04;45.52;39.21;56.82;;
66589;Laerm;53447;49.272;11.070;2022-10-30T00:36:29;42.11;38.31;48.41;;
66589;Laerm;53447;49.272;11.070;2022-10-30T00:38:54;41.38;38.53;47.44;;
66589;Laerm;53447;49.272;11.070;2022-10-30T00:41:20;42.55;38.63;52.63;;
66589;Laerm;53447;49.272;11.070;2022-10-30T00:43:46;41.23;39.03;43.98;;
66589;Laerm;53447;49.272;11.070;2022-10-30T00:48:39;41.69;38.39;43.83;;
66589;Laerm;53447;49.272;11.070;2022-10-30T00:51:06;40.97;38.31;43.15;;
66589;Laerm;53447;49.272;11.070;2022-10-30T00:53:33;41.34;37.96;43.77;;
66589;Laerm;53447;49.272;11.070;2022-10-30T00:56:00;41.05;38.08;43.80;;
66589;Laerm;53447;49.272;11.070;2022-10-30T00:58:28;40.78;37.58;42.53;;
66589;Laerm;53447;49.272;11.070;2022-10-30T01:00:55;40.75;36.20;42.97;;
66589;Laerm;53447;49.272;11.070;2022-10-30T01:03:21;43.88;38.73;62.98;;
66589;Laerm;53447;49.272;11.070;2022-10-30T01:05:50;42.07;39.39;43.98;;
66589;Laerm;53447;49.272;11.070;2022-10-30T01:08:16;42.48;40.03;44.57;;
66589;Laerm;53447;49.272;11.070;2022-10-30T01:10:41;41.14;37.02;44.49;;
66589;Laerm;53447;49.272;11.070;2022-10-30T01:13:07;40.79;38.08;42.18;;
66589;Laerm;53447;49.272;11.070;2022-10-30T01:15:34;40.81;37.84;42.40;;
66589;Laerm;53447;49.272;11.070;2022-10-30T01:18:07;40.69;37.17;42.13;;
66589;Laerm;53447;49.272;11.070;2022-10-30T01:26:19;40.46;36.55;42.61;;
66589;Laerm;53447;49.272;11.070;2022-10-30T01:36:52;40.65;35.19;42.36;;
66589;Laerm;53447;49.272;11.070;2022-10-30T01:39:25;40.75;36.20;42.49;;
66589;Laerm;53447;49.272;11.070;2022-10-30T01:41:51;41.03;38.42;43.30;;
66589;Laerm;53447;49.272;11.070;2022-10-30T01:44:22;42.12;38.53;44.33;;
66589;Laerm;53447;49.272;11.070;2022-10-30T01:49:38;40.76;36.20;45.19;;
66589;Laerm;53447;49.272;11.070;2022-10-30T01:54:38;41.12;36.82;43.19;;
66589;Laerm;53447;49.272;11.070;2022-10-30T02:02:02;40.59;34.44;42.57;;
66589;Laerm;53447;49.272;11.070;2022-10-30T02:04:27;40.49;36.38;42.10;;
66589;Laerm;53447;49.272;11.070;2022-10-30T02:06:53;40.52;35.19;41.84;;
66589;Laerm;53447;49.272;11.070;2022-10-30T02:09:18;40.67;37.31;52.90;;
66589;Laerm;53447;49.272;11.070;2022-10-30T02:11:44;40.92;37.17;47.11;;
66589;Laerm;53447;49.272;11.070;2022-10-30T02:14:10;40.59;35.62;43.23;;
66589;Laerm;53447;49.272;11.070;2022-10-30T02:16:43;40.59;35.85;43.83;;
66589;Laerm;53447;49.272;11.070;2022-10-30T02:19:10;40.68;34.95;42.27;;
66589;Laerm;53447;49.272;11.070;2022-10-30T02:21:35;40.61;34.95;46.60;;
66589;Laerm;53447;49.272;11.070;2022-10-30T02:24:00;40.90;37.58;42.89;;
66589;Laerm;53447;49.272;11.070;2022-10-30T02:26:25;41.11;36.02;44.04;;
66589;Laerm;53447;49.272;11.070;2022-10-30T02:28:50;41.99;38.53;60.62;;
66589;Laerm;53447;49.272;11.070;2022-10-30T02:31:16;41.00;37.31;43.12;;
66589;Laerm;53447;49.272;11.070;2022-10-30T02:33:44;40.80;37.71;42.49;;
66589;Laerm;53447;49.272;11.070;2022-10-30T02:36:09;40.70;37.84;42.44;;
66589;Laerm;53447;49.272;11.070;2022-10-30T02:38:35;40.68;37.58;42.77;;
66589;Laerm;53447;49.272;11.070;2022-10-30T02:41:00;40.86;37.84;42.89;;
66589;Laerm;53447;49.272;11.070;2022-10-30T02:43:25;40.88;37.71;42.89;;
66589;Laerm;53447;49.272;11.070;2022-10-30T02:45:50;41.43;38.93;43.26;;
66589;Laerm;53447;49.272;11.070;2022-10-30T02:48:16;41.55;36.87;43.86;;
66589;Laerm;53447;49.272;11.070;2022-10-30T02:50:41;41.14;36.02;42.81;;
66589;Laerm;53447;49.272;11.070;2022-10-30T02:53:06;40.94;37.45;42.93;;
66589;Laerm;53447;49.272;11.070;2022-10-30T02:55:31;41.00;38.31;42.40;;
66589;Laerm;53447;49.272;11.070;2022-10-30T02:57:56;40.95;37.45;42.73;;
66589;Laerm;53447;49.272;11.070;2022-10-30T03:00:22;40.89;36.87;42.18;;
66589;Laerm;53447;49.272;11.070;2022-10-30T03:02:47;40.83;36.87;42.31;;
66589;Laerm;53447;49.272;11.070;2022-10-30T03:05:12;41.03;37.17;42.61;;
66589;Laerm;53447;49.272;11.070;2022-10-30T03:07:37;41.29;36.87;44.19;;
66589;Laerm;53447;49.272;11.070;2022-10-30T03:12:50;40.76;35.82;41.94;;
66589;Laerm;53447;49.272;11.070;2022-10-30T03:15:15;40.93;36.71;42.44;;
66589;Laerm;53447;49.272;11.070;2022-10-30T03:17:40;41.15;38.31;47.91;;
66589;Laerm;53447;49.272;11.070;2022-10-30T03:20:06;41.01;37.31;45.09;;
66589;Laerm;53447;49.272;11.070;2022-10-30T03:22:31;41.37;38.42;42.97;;
66589;Laerm;53447;49.272;11.070;2022-10-30T03:24:56;40.95;37.02;42.08;;
66589;Laerm;53447;49.272;11.070;2022-10-30T03:27:22;40.84;35.62;42.69;;
66589;Laerm;53447;49.272;11.070;2022-10-30T03:29:47;40.90;35.85;42.85;;
66589;Laerm;53447;49.272;11.070;2022-10-30T03:32:12;42.17;38.31;48.44;;
66589;Laerm;53447;49.272;11.070;2022-10-30T03:34:37;40.89;35.82;42.36;;
66589;Laerm;53447;49.272;11.070;2022-10-30T03:37:03;40.93;36.02;42.49;;
66589;Laerm;53447;49.272;11.070;2022-10-30T03:39:28;41.41;38.73;44.22;;
66589;Laerm;53447;49.272;11.070;2022-10-30T03:41:53;42.87;39.80;50.26;;
66589;Laerm;53447;49.272;11.070;2022-10-30T03:44:19;42.88;40.53;48.65;;
66589;Laerm;53447;49.272;11.070;2022-10-30T03:46:44;41.74;37.96;43.19;;
66589;Laerm;53447;49.272;11.070;2022-10-30T03:49:09;41.40;37.58;44.88;;
66589;Laerm;53447;49.272;11.070;2022-10-30T03:51:34;41.04;36.02;42.93;;
66589;Laerm;53447;49.272;11.070;2022-10-30T03:53:59;41.59;36.87;45.43;;
66589;Laerm;53447;49.272;11.070;2022-10-30T03:56:25;42.24;38.83;44.36;;
66589;Laerm;53447;49.272;11.070;2022-10-30T03:58:50;41.88;39.21;44.16;;
66589;Laerm;53447;49.272;11.070;2022-10-30T04:01:15;41.68;37.31;44.63;;
66589;Laerm;53447;49.272;11.070;2022-10-30T04:03:40;41.78;39.03;44.30;;
66589;Laerm;53447;49.272;11.070;2022-10-30T04:06:06;42.55;40.32;44.55;;
66589;Laerm;53447;49.272;11.070;2022-10-30T04:08:31;42.11;39.30;43.96;;
66589;Laerm;53447;49.272;11.070;2022-10-30T04:10:56;41.85;38.95;43.54;;
66589;Laerm;53447;49.272;11.070;2022-10-30T04:13:22;41.49;38.83;44.10;;
66589;Laerm;53447;49.272;11.070;2022-10-30T04:15:47;41.61;39.12;44.85;;
66589;Laerm;53447;49.272;11.070;2022-10-30T04:18:13;41.36;38.68;43.26;;
66589;Laerm;53447;49.272;11.070;2022-10-30T04:20:40;43.43;39.72;52.99;;
66589;Laerm;53447;49.272;11.070;2022-10-30T04:23:06;42.60;39.39;49.50;;
66589;Laerm;53447;49.272;11.070;2022-10-30T04:25:33;41.38;39.03;43.86;;
66589;Laerm;53447;49.272;11.070;2022-10-30T04:27:58;41.66;39.30;43.95;;
66589;Laerm;53447;49.272;11.070;2022-10-30T04:30:24;43.60;37.58;56.18;;
66589;Laerm;53447;49.272;11.070;2022-10-30T04:32:52;44.96;39.80;58.14;;
66589;Laerm;53447;49.272;11.070;2022-10-30T04:35:19;41.53;39.30;43.51;;
66589;Laerm;53447;49.272;11.070;2022-10-30T04:40:37;42.78;38.31;55.25;;
66589;Laerm;53447;49.272;11.070;2022-10-30T04:43:03;42.06;39.21;49.44;;
66589;Laerm;53447;49.272;11.070;2022-10-30T04:45:28;42.64;39.64;50.71;;
66589;Laerm;53447;49.272;11.070;2022-10-30T04:48:03;42.99;39.80;57.64;;
66589;Laerm;53447;49.272;11.070;2022-10-30T04:50:30;42.46;39.64;51.53;;
66589;Laerm;53447;49.272;11.070;2022-10-30T04:53:02;42.72;39.64;46.45;;
66589;Laerm;53447;49.272;11.070;2022-10-30T04:55:28;41.44;38.83;43.01;;
66589;Laerm;53447;49.272;11.070;2022-10-30T04:57:54;41.27;38.53;43.70;;
66589;Laerm;53447;49.272;11.070;2022-10-30T05:00:19;44.37;39.21;57.01;;
66589;Laerm;53447;49.272;11.070;2022-10-30T05:02:45;48.93;41.03;60.83;;
66589;Laerm;53447;49.272;11.070;2022-10-30T05:05:10;42.23;39.30;46.60;;
66589;Laerm;53447;49.272;11.070;2022-10-30T05:07:35;42.10;39.04;44.44;;
66589;Laerm;53447;49.272;11.070;2022-10-30T05:10:00;42.01;38.93;44.22;;
66589;Laerm;53447;49.272;11.070;2022-10-30T05:12:26;41.32;37.58;51.61;;
66589;Laerm;53447;49.272;11.070;2022-10-30T05:14:51;41.92;37.31;51.68;;
66589;Laerm;53447;49.272;11.070;2022-10-30T05:17:16;43.22;38.93;52.50;;
66589;Laerm;53447;49.272;11.070;2022-10-30T05:19:41;41.78;39.48;45.58;;
66589;Laerm;53447;49.272;11.070;2022-10-30T05:22:06;41.51;38.31;60.00;;
66589;Laerm;53447;49.272;11.070;2022-10-30T05:24:33;43.22;37.71;58.31;;
66589;Laerm;53447;49.272;11.070;2022-10-30T05:26:58;41.84;38.93;59.07;;
66589;Laerm;53447;49.272;11.070;2022-10-30T05:29:23;42.31;39.30;46.62;;
66589;Laerm;53447;49.272;11.070;2022-10-30T05:31:48;46.57;38.53;67.73;;
66589;Laerm;53447;49.272;11.070;2022-10-30T05:34:14;43.79;38.31;53.25;;
66589;Laerm;53447;49.272;11.070;2022-10-30T05:36:39;41.27;38.53;45.02;;
66589;Laerm;53447;49.272;11.070;2022-10-30T05:39:04;41.91;37.96;60.02;;
66589;Laerm;53447;49.272;11.070;2022-10-30T05:41:29;41.26;38.53;52.57;;
66589;Laerm;53447;49.272;11.070;2022-10-30T05:43:55;42.14;39.12;43.98;;
66589;Laerm;53447;49.272;11.070;2022-10-30T05:46:20;43.19;40.39;58.04;;
66589;Laerm;53447;49.272;11.070;2022-10-30T05:48:45;46.24;39.56;59.55;;
66589;Laerm;53447;49.272;11.070;2022-10-30T05:51:11;45.91;39.64;60.16;;
66589;Laerm;53447;49.272;11.070;2022-10-30T05:53:36;45.85;39.39;57.09;;
66589;Laerm;53447;49.272;11.070;2022-10-30T05:56:01;46.73;39.80;61.10;;
66589;Laerm;53447;49.272;11.070;2022-10-30T05:58:26;46.19;39.21;59.94;;
66589;Laerm;53447;49.272;11.070;2022-10-30T06:00:52;47.28;40.39;63.15;;
66589;Laerm;53447;49.272;11.070;2022-10-30T06:03:17;48.14;40.91;61.44;;
66589;Laerm;53447;49.272;11.070;2022-10-30T06:05:43;48.71;40.53;64.10;;
66589;Laerm;53447;49.272;11.070;2022-10-30T06:08:09;44.59;38.73;60.53;;
66589;Laerm;53447;49.272;11.070;2022-10-30T06:10:34;47.84;39.80;62.85;;
66589;Laerm;53447;49.272;11.070;2022-10-30T06:13:02;50.07;39.30;64.62;;
66589;Laerm;53447;49.272;11.070;2022-10-30T06:15:28;49.40;38.73;64.00;;
66589;Laerm;53447;49.272;11.070;2022-10-30T06:17:54;49.91;38.93;61.70;;
66589;Laerm;53447;49.272;11.070;2022-10-30T06:20:20;47.15;40.46;60.44;;
66589;Laerm;53447;49.272;11.070;2022-10-30T06:22:52;44.99;40.53;67.56;;
66589;Laerm;53447;49.272;11.070;2022-10-30T06:25:17;42.35;40.39;51.99;;
66589;Laerm;53447;49.272;11.070;2022-10-30T06:27:42;43.44;40.72;60.66;;
66589;Laerm;53447;49.272;11.070;2022-10-30T06:30:08;46.66;40.39;62.68;;
66589;Laerm;53447;49.272;11.070;2022-10-30T06:32:33;47.09;40.66;62.85;;
66589;Laerm;53447;49.272;11.070;2022-10-30T06:34:58;47.02;41.08;63.53;;
66589;Laerm;53447;49.272;11.070;2022-10-30T06:37:23;45.91;39.48;61.46;;
66589;Laerm;53447;49.272;11.070;2022-10-30T06:39:48;43.79;39.12;59.20;;
66589;Laerm;53447;49.272;11.070;2022-10-30T06:42:14;44.66;40.03;59.91;;
66589;Laerm;53447;49.272;11.070;2022-10-30T06:44:39;51.81;39.48;69.11;;
66589;Laerm;53447;49.272;11.070;2022-10-30T06:47:04;50.76;40.79;59.75;;
66589;Laerm;53447;49.272;11.070;2022-10-30T06:49:29;49.59;40.11;60.69;;
66589;Laerm;53447;49.272;11.070;2022-10-30T06:51:54;44.15;38.93;59.21;;
66589;Laerm;53447;49.272;11.070;2022-10-30T06:54:20;44.43;39.64;58.78;;
66589;Laerm;53447;49.272;11.070;2022-10-30T06:56:48;45.43;38.83;61.94;;
66589;Laerm;53447;49.272;11.070;2022-10-30T06:59:13;51.12;39.48;68.26;;
66589;Laerm;53447;49.272;11.070;2022-10-30T07:01:38;43.49;39.91;66.50;;
66589;Laerm;53447;49.272;11.070;2022-10-30T07:04:04;43.78;39.30;58.92;;
66589;Laerm;53447;49.272;11.070;2022-10-30T07:06:29;47.95;39.21;67.26;;
66589;Laerm;53447;49.272;11.070;2022-10-30T07:08:54;46.00;39.88;67.16;;
66589;Laerm;53447;49.272;11.070;2022-10-30T07:11:19;42.89;40.03;56.23;;
66589;Laerm;53447;49.272;11.070;2022-10-30T07:13:45;49.74;40.72;65.05;;
66589;Laerm;53447;49.272;11.070;2022-10-30T07:16:10;46.60;39.12;66.23;;
66589;Laerm;53447;49.272;11.070;2022-10-30T07:18:35;42.33;38.93;59.22;;
66589;Laerm;53447;49.272;11.070;2022-10-30T07:21:00;45.05;38.73;62.41;;
66589;Laerm;53447;49.272;11.070;2022-10-30T07:23:26;48.99;38.73;65.88;;
66589;Laerm;53447;49.272;11.070;2022-10-30T07:25:51;45.53;39.30;60.00;;
66589;Laerm;53447;49.272;11.070;2022-10-30T07:28:16;49.90;39.30;66.83;;
66589;Laerm;53447;49.272;11.070;2022-10-30T07:30:41;44.18;39.39;59.20;;
66589;Laerm;53447;49.272;11.070;2022-10-30T07:33:07;45.66;39.12;64.04;;
66589;Laerm;53447;49.272;11.070;2022-10-30T07:35:34;51.81;39.39;71.43;;
66589;Laerm;53447;49.272;11.070;2022-10-30T07:38:03;47.27;38.95;68.69;;
66589;Laerm;53447;49.272;11.070;2022-10-30T07:40:28;45.84;40.59;62.68;;
66589;Laerm;53447;49.272;11.070;2022-10-30T07:42:57;43.69;39.88;56.90;;
66589;Laerm;53447;49.272;11.070;2022-10-30T07:45:22;46.99;39.39;76.09;;
66589;Laerm;53447;49.272;11.070;2022-10-30T07:47:47;43.45;39.96;57.19;;
66589;Laerm;53447;49.272;11.070;2022-10-30T07:50:13;42.67;39.21;55.98;;
66589;Laerm;53447;49.272;11.070;2022-10-30T07:52:38;43.43;39.64;59.24;;
66589;Laerm;53447;49.272;11.070;2022-10-30T07:55:03;53.31;39.39;71.29;;
66589;Laerm;53447;49.272;11.070;2022-10-30T07:57:30;53.49;39.64;69.63;;
66589;Laerm;53447;49.272;11.070;2022-10-30T07:59:55;45.39;39.39;60.02;;
66589;Laerm;53447;49.272;11.070;2022-10-30T08:02:21;47.31;39.64;67.20;;
66589;Laerm;53447;49.272;11.070;2022-10-30T08:04:46;43.84;38.95;59.18;;
66589;Laerm;53447;49.272;11.070;2022-10-30T08:07:11;52.68;39.56;70.21;;
66589;Laerm;53447;49.272;11.070;2022-10-30T08:09:36;48.85;40.39;70.24;;
66589;Laerm;53447;49.272;11.070;2022-10-30T08:12:01;52.04;39.64;69.68;;
66589;Laerm;53447;49.272;11.070;2022-10-30T08:14:27;45.47;40.25;58.75;;
66589;Laerm;53447;49.272;11.070;2022-10-30T08:16:52;45.66;38.73;58.73;;
66589;Laerm;53447;49.272;11.070;2022-10-30T08:19:17;45.00;39.12;59.93;;
66589;Laerm;53447;49.272;11.070;2022-10-30T08:21:42;45.41;39.12;58.26;;
66589;Laerm;53447;49.272;11.070;2022-10-30T08:24:08;45.87;38.93;67.71;;
66589;Laerm;53447;49.272;11.070;2022-10-30T08:26:33;48.29;39.80;65.36;;
66589;Laerm;53447;49.272;11.070;2022-10-30T08:28:59;44.42;39.96;63.30;;
66589;Laerm;53447;49.272;11.070;2022-10-30T08:31:24;50.21;38.73;70.49;;
66589;Laerm;53447;49.272;11.070;2022-10-30T08:33:49;48.48;39.38;64.98;;
66589;Laerm;53447;49.272;11.070;2022-10-30T08:36:15;47.92;39.64;63.14;;
66589;Laerm;53447;49.272;11.070;2022-10-30T08:38:40;61.40;39.39;84.33;;
66589;Laerm;53447;49.272;11.070;2022-10-30T08:41:05;42.17;39.48;53.46;;
66589;Laerm;53447;49.272;11.070;2022-10-30T08:43:30;43.46;40.39;58.95;;
66589;Laerm;53447;49.272;11.070;2022-10-30T08:45:56;44.87;38.63;57.83;;
66589;Laerm;53447;49.272;11.070;2022-10-30T08:48:21;43.64;40.32;57.04;;
66589;Laerm;53447;49.272;11.070;2022-10-30T08:50:46;43.08;39.39;54.12;;
66589;Laerm;53447;49.272;11.070;2022-10-30T08:53:13;56.94;43.61;67.70;;
66589;Laerm;53447;49.272;11.070;2022-10-30T08:55:38;53.56;39.72;63.95;;
66589;Laerm;53447;49.272;11.070;2022-10-30T08:58:04;42.13;38.93;59.76;;
66589;Laerm;53447;49.272;11.070;2022-10-30T09:00:29;41.87;38.93;54.09;;
66589;Laerm;53447;49.272;11.070;2022-10-30T09:02:54;44.79;39.03;57.85;;
66589;Laerm;53447;49.272;11.070;2022-10-30T09:05:20;49.31;39.03;66.67;;
66589;Laerm;53447;49.272;11.070;2022-10-30T09:07:46;56.19;39.12;73.69;;
66589;Laerm;53447;49.272;11.070;2022-10-30T09:10:11;51.64;39.21;70.54;;
66589;Laerm;53447;49.272;11.070;2022-10-30T09:12:36;44.13;39.48;60.50;;
66589;Laerm;53447;49.272;11.070;2022-10-30T09:15:02;43.19;39.30;58.83;;
66589;Laerm;53447;49.272;11.070;2022-10-30T09:17:28;43.20;39.30;57.89;;
66589;Laerm;53447;49.272;11.070;2022-10-30T09:19:53;42.10;39.96;56.64;;
66589;Laerm;53447;49.272;11.070;2022-10-30T09:22:18;44.24;39.39;59.95;;
66589;Laerm;53447;49.272;11.070;2022-10-30T09:24:43;42.91;39.80;57.69;;
66589;Laerm;53447;49.272;11.070;2022-10-30T09:27:09;56.89;39.46;74.91;;
66589;Laerm;53447;49.272;11.070;2022-10-30T09:29:34;47.34;39.03;61.71;;
66589;Laerm;53447;49.272;11.070;2022-10-30T09:32:00;43.50;38.63;57.97;;
66589;Laerm;53447;49.272;11.070;2022-10-30T09:34:25;43.32;38.73;57.06;;
66589;Laerm;53447;49.272;11.070;2022-10-30T09:36:54;41.45;38.83;54.23;;
66589;Laerm;53447;49.272;11.070;2022-10-30T09:39:20;52.09;38.20;73.18;;
66589;Laerm;53447;49.272;11.070;2022-10-30T09:44:40;49.47;38.83;69.29;;
66589;Laerm;53447;49.272;11.070;2022-10-30T09:47:29;50.46;39.30;65.07;;
66589;Laerm;53447;49.272;11.070;2022-10-30T10:01:15;42.37;39.48;58.79;;
66589;Laerm;53447;49.272;11.070;2022-10-30T10:06:11;41.11;37.84;51.01;;
66589;Laerm;53447;49.272;11.070;2022-10-30T10:08:49;44.01;37.84;57.78;;
66589;Laerm;53447;49.272;11.070;2022-10-30T10:11:18;45.32;38.53;60.65;;
66589;Laerm;53447;49.272;11.070;2022-10-30T10:13:47;42.64;38.73;53.56;;
66589;Laerm;53447;49.272;11.070;2022-10-30T10:16:22;45.06;39.21;60.23;;
66589;Laerm;53447;49.272;11.070;2022-10-30T10:18:51;45.69;38.31;61.46;;
66589;Laerm;53447;49.272;11.070;2022-10-30T10:21:24;50.98;39.30;69.65;;
66589;Laerm;53447;49.272;11.070;2022-10-30T10:23:59;46.49;38.53;61.54;;
66589;Laerm;53447;49.272;11.070;2022-10-30T10:26:47;45.78;40.91;59.27;;
66589;Laerm;53447;49.272;11.070;2022-10-30T10:36:51;43.15;39.12;58.53;;
66589;Laerm;53447;49.272;11.070;2022-10-30T10:41:53;54.07;38.83;71.76;;
66589;Laerm;53447;49.272;11.070;2022-10-30T10:51:58;49.47;39.56;63.36;;
66589;Laerm;53447;49.272;11.070;2022-10-30T10:56:51;40.79;37.58;50.39;;
66589;Laerm;53447;49.272;11.070;2022-10-30T10:59:36;41.59;38.63;51.24;;
66589;Laerm;53447;49.272;11.070;2022-10-30T11:06:54;52.45;39.12;76.78;;
66589;Laerm;53447;49.272;11.070;2022-10-30T11:09:23;42.06;38.31;59.47;;
66589;Laerm;53447;49.272;11.070;2022-10-30T11:11:51;55.28;39.12;74.32;;
66589;Laerm;53447;49.272;11.070;2022-10-30T11:19:13;42.62;38.63;57.85;;
66589;Laerm;53447;49.272;11.070;2022-10-30T11:21:41;52.77;38.53;70.91;;
66589;Laerm;53447;49.272;11.070;2022-10-30T11:24:24;44.88;38.08;58.51;;
66589;Laerm;53447;49.272;11.070;2022-10-30T11:26:49;45.16;38.53;60.86;;
66589;Laerm;53447;49.272;11.070;2022-10-30T11:29:17;50.14;38.31;70.27;;
66589;Laerm;53447;49.272;11.070;2022-10-30T11:31:45;49.79;39.56;67.92;;
66589;Laerm;53447;49.272;11.070;2022-10-30T11:36:46;45.24;39.03;57.41;;
66589;Laerm;53447;49.272;11.070;2022-10-30T11:44:24;43.53;39.96;58.01;;
66589;Laerm;53447;49.272;11.070;2022-10-30T11:46:51;43.78;39.21;55.70;;
66589;Laerm;53447;49.272;11.070;2022-10-30T11:49:36;50.15;37.71;63.07;;
66589;Laerm;53447;49.272;11.070;2022-10-30T11:52:03;41.41;37.17;52.15;;
66589;Laerm;53447;49.272;11.070;2022-10-30T11:54:29;50.82;38.53;69.14;;
66589;Laerm;53447;49.272;11.070;2022-10-30T11:56:59;51.61;37.84;70.36;;
66589;Laerm;53447;49.272;11.070;2022-10-30T11:59:24;45.72;40.32;60.18;;
66589;Laerm;53447;49.272;11.070;2022-10-30T12:01:59;42.35;37.84;59.36;;
66589;Laerm;53447;49.272;11.070;2022-10-30T12:04:26;40.87;37.31;54.35;;
66589;Laerm;53447;49.272;11.070;2022-10-30T12:09:43;42.36;38.73;53.13;;
66589;Laerm;53447;49.272;11.070;2022-10-30T12:12:21;49.43;37.45;67.78;;
66589;Laerm;53447;49.272;11.070;2022-10-30T12:14:47;41.30;37.31;52.29;;
66589;Laerm;53447;49.272;11.070;2022-10-30T12:17:13;41.14;37.02;54.78;;
66589;Laerm;53447;49.272;11.070;2022-10-30T12:19:38;43.55;39.48;53.65;;
66589;Laerm;53447;49.272;11.070;2022-10-30T12:22:08;47.83;39.39;66.65;;
66589;Laerm;53447;49.272;11.070;2022-10-30T12:24:36;51.88;40.72;69.21;;
66589;Laerm;53447;49.272;11.070;2022-10-30T12:27:04;46.05;38.93;68.22;;
66589;Laerm;53447;49.272;11.070;2022-10-30T12:29:38;43.52;37.45;60.83;;
66589;Laerm;53447;49.272;11.070;2022-10-30T12:32:05;42.20;37.58;63.34;;
66589;Laerm;53447;49.272;11.070;2022-10-30T12:34:45;41.58;37.96;54.22;;
66589;Laerm;53447;49.272;11.070;2022-10-30T12:37:14;42.14;37.31;55.61;;
66589;Laerm;53447;49.272;11.070;2022-10-30T12:42:15;41.68;37.45;55.38;;
66589;Laerm;53447;49.272;11.070;2022-10-30T12:47:07;41.36;37.71;53.89;;
66589;Laerm;53447;49.272;11.070;2022-10-30T12:49:49;41.41;37.31;50.90;;
66589;Laerm;53447;49.272;11.070;2022-10-30T12:57:31;40.97;37.84;47.69;;
66589;Laerm;53447;49.272;11.070;2022-10-30T13:00:12;40.81;37.58;49.88;;
66589;Laerm;53447;49.272;11.070;2022-10-30T13:02:44;49.03;38.53;67.23;;
66589;Laerm;53447;49.272;11.070;2022-10-30T13:08:16;43.62;38.31;56.98;;
66589;Laerm;53447;49.272;11.070;2022-10-30T13:10:45;44.70;37.31;67.01;;
66589;Laerm;53447;49.272;11.070;2022-10-30T13:15:46;49.23;38.63;66.56;;
66589;Laerm;53447;49.272;11.070;2022-10-30T13:18:16;44.53;39.48;62.29;;
66589;Laerm;53447;49.272;11.070;2022-10-30T13:20:43;46.15;39.03;59.83;;
66589;Laerm;53447;49.272;11.070;2022-10-30T13:23:14;53.61;39.21;71.66;;
66589;Laerm;53447;49.272;11.070;2022-10-30T13:28:46;47.46;38.58;71.65;;
66589;Laerm;53447;49.272;11.070;2022-10-30T13:31:16;52.17;39.48;76.07;;
66589;Laerm;53447;49.272;11.070;2022-10-30T13:34:34;44.39;39.03;64.93;;
66589;Laerm;53447;49.272;11.070;2022-10-30T13:36:34;43.96;38.93;57.73;;
66589;Laerm;53447;49.272;11.070;2022-10-30T13:39:21;46.00;40.39;62.63;;
66589;Laerm;53447;49.272;11.070;2022-10-30T13:42:11;45.21;38.93;60.07;;
66589;Laerm;53447;49.272;11.070;2022-10-30T13:54:29;44.08;38.42;58.13;;
66589;Laerm;53447;49.272;11.070;2022-10-30T13:56:55;45.90;39.96;58.14;;
66589;Laerm;53447;49.272;11.070;2022-10-30T13:59:33;45.69;39.03;61.44;;
66589;Laerm;53447;49.272;11.070;2022-10-30T14:02:16;43.51;39.03;55.30;;
66589;Laerm;53447;49.272;11.070;2022-10-30T14:04:58;50.70;39.56;65.67;;
66589;Laerm;53447;49.272;11.070;2022-10-30T14:07:30;42.68;38.93;52.91;;
66589;Laerm;53447;49.272;11.070;2022-10-30T14:10:45;47.05;39.30;63.25;;
66589;Laerm;53447;49.272;11.070;2022-10-30T14:15:43;42.32;39.12;56.86;;
66589;Laerm;53447;49.272;11.070;2022-10-30T14:18:41;46.95;38.73;63.85;;
66589;Laerm;53447;49.272;11.070;2022-10-30T14:20:53;44.38;39.80;61.57;;
66589;Laerm;53447;49.272;11.070;2022-10-30T14:23:20;51.96;39.96;70.99;;
66589;Laerm;53447;49.272;11.070;2022-10-30T14:28:28;43.23;40.25;52.91;;
66589;Laerm;53447;49.272;11.070;2022-10-30T14:31:03;46.09;39.72;63.22;;
66589;Laerm;53447;49.272;11.070;2022-10-30T14:33:32;46.06;40.85;58.60;;
66589;Laerm;53447;49.272;11.070;2022-10-30T14:36:58;46.64;40.53;60.72;;
66589;Laerm;53447;49.272;11.070;2022-10-30T14:41:23;45.03;40.03;63.85;;
66589;Laerm;53447;49.272;11.070;2022-10-30T14:43:56;43.54;39.64;56.70;;
66589;Laerm;53447;49.272;11.070;2022-10-30T14:47:14;45.44;40.53;65.77;;
66589;Laerm;53447;49.272;11.070;2022-10-30T14:51:54;49.19;40.79;66.07;;
66589;Laerm;53447;49.272;11.070;2022-10-30T14:54:28;45.24;39.98;61.61;;
66589;Laerm;53447;49.272;11.070;2022-10-30T14:56:59;43.92;40.18;57.68;;
66589;Laerm;53447;49.272;11.070;2022-10-30T14:59:30;48.85;39.80;65.64;;
66589;Laerm;53447;49.272;11.070;2022-10-30T15:09:41;44.10;40.53;56.25;;
66589;Laerm;53447;49.272;11.070;2022-10-30T15:14:39;45.17;39.96;58.85;;
66589;Laerm;53447;49.272;11.070;2022-10-30T15:17:11;43.03;40.11;55.71;;
66589;Laerm;53447;49.272;11.070;2022-10-30T15:19:39;43.37;40.53;58.14;;
66589;Laerm;53447;49.272;11.070;2022-10-30T15:22:04;47.87;40.56;64.55;;
66589;Laerm;53447;49.272;11.070;2022-10-30T15:24:29;44.01;41.15;58.05;;
66589;Laerm;53447;49.272;11.070;2022-10-30T15:26:57;51.08;40.80;69.13;;
66589;Laerm;53447;49.272;11.070;2022-10-30T15:29:26;43.64;40.53;52.96;;
66589;Laerm;53447;49.272;11.070;2022-10-30T15:31:56;43.13;40.91;51.38;;
66589;Laerm;53447;49.272;11.070;2022-10-30T15:34:22;43.02;40.72;56.32;;
66589;Laerm;53447;49.272;11.070;2022-10-30T15:36:47;55.83;40.85;73.83;;
66589;Laerm;53447;49.272;11.070;2022-10-30T15:39:16;51.81;40.91;71.33;;
66589;Laerm;53447;49.272;11.070;2022-10-30T15:41:43;43.18;40.66;56.86;;
66589;Laerm;53447;49.272;11.070;2022-10-30T15:44:10;45.65;40.59;63.70;;
66589;Laerm;53447;49.272;11.070;2022-10-30T15:46:38;48.05;40.79;64.06;;
66589;Laerm;53447;49.272;11.070;2022-10-30T15:49:03;44.56;40.79;58.49;;
66589;Laerm;53447;49.272;11.070;2022-10-30T15:51:28;45.13;40.18;65.61;;